Time;durP1;ratioP1;P1;durP2;ratioP2;P2;SDS_P1;SDS_P2;PMS_P1;PMS_P2;Temp;Humidity;BMP_temperature;BMP_pressure;BME280_temperature;BME280_humidity;BME280_pressure;Samples;Min_cycle;Max_cycle;Signal;HPM_P1;HPM_P2
2024/03/12 00:00:59;;;;;;;33.80;22.20;;;;;;;6.47;100.00;100200.95;105518;1259;100718;-78
2024/03/12 00:03:44;;;;;;;29.50;22.90;;;;;;;6.47;100.00;100198.93;105493;1262;97983;-78
2024/03/12 00:06:30;;;;;;;32.70;23.80;;;;;;;6.46;100.00;100197.60;105261;1262;97959;-76
2024/03/12 00:09:17;;;;;;;30.50;22.10;;;;;;;6.44;100.00;100198.43;105456;1264;99737;-79
2024/03/12 00:12:02;;;;;;;29.80;21.90;;;;;;;6.44;100.00;100197.59;105274;1264;101459;-78
2024/03/12 00:14:49;;;;;;;32.50;23.60;;;;;;;6.43;100.00;100191.84;105290;1264;99081;-78
2024/03/12 00:17:36;;;;;;;31.60;23.60;;;;;;;6.42;100.00;100189.32;105273;1264;98974;-78
2024/03/12 00:20:33;;;;;;;37.50;23.70;;;;;;;6.42;100.00;100187.73;105391;1264;99273;-79
2024/03/12 00:23:20;;;;;;;29.80;22.60;;;;;;;6.41;100.00;100186.90;105330;1261;98027;-79
2024/03/12 00:26:05;;;;;;;33.40;23.60;;;;;;;6.41;100.00;100186.91;105917;1260;101424;-78
2024/03/12 00:28:51;;;;;;;31.70;22.30;;;;;;;6.42;100.00;100188.44;105283;1263;99893;-78
2024/03/12 00:31:38;;;;;;;33.20;23.80;;;;;;;6.42;100.00;100190.39;105472;1264;98458;-78
2024/03/12 00:34:25;;;;;;;29.20;21.30;;;;;;;6.42;100.00;100186.63;105437;1264;98064;-78
2024/03/12 00:37:11;;;;;;;29.40;21.10;;;;;;;6.42;100.00;100188.30;105359;1260;98805;-78
2024/03/12 00:39:57;;;;;;;34.60;23.30;;;;;;;6.43;100.00;100188.13;105631;1259;101307;-78
2024/03/12 00:42:43;;;;;;;31.70;23.20;;;;;;;6.44;100.00;100190.31;106036;1260;99113;-78
2024/03/12 00:45:36;;;;;;;30.10;23.40;;;;;;;6.45;100.00;100191.31;105819;1265;98785;-78
2024/03/12 00:48:22;;;;;;;30.30;20.70;;;;;;;6.45;100.00;100183.44;105892;1264;98042;-79
2024/03/12 00:51:11;;;;;;;26.10;20.20;;;;;;;6.46;100.00;100183.88;105937;1259;97888;-79
2024/03/12 00:53:58;;;;;;;27.10;20.30;;;;;;;6.45;100.00;100182.73;106050;1264;102698;-79
2024/03/12 00:56:46;;;;;;;29.90;21.60;;;;;;;6.45;100.00;100183.67;106173;1261;99232;-80
2024/03/12 00:59:32;;;;;;;33.30;21.70;;;;;;;6.45;100.00;100182.63;105507;1264;98468;-78
2024/03/12 01:02:19;;;;;;;31.50;21.70;;;;;;;6.45;100.00;100184.39;105375;1261;97890;-78
2024/03/12 01:05:04;;;;;;;33.10;21.90;;;;;;;6.45;100.00;100185.30;105471;1261;97955;-79
2024/03/12 01:07:54;;;;;;;34.20;23.30;;;;;;;6.43;100.00;100181.05;105480;1259;102593;-78
2024/03/12 01:10:40;;;;;;;28.60;20.20;;;;;;;6.42;100.00;100180.43;106546;1263;99225;-78
2024/03/12 01:13:27;;;;;;;30.90;22.10;;;;;;;6.42;100.00;100179.17;105919;1260;98554;-80
2024/03/12 01:16:14;;;;;;;29.80;22.20;;;;;;;6.41;100.00;100178.05;106107;1260;98002;-78
2024/03/12 01:19:00;;;;;;;34.00;22.60;;;;;;;6.40;100.00;100177.98;106117;1264;98579;-80
2024/03/12 01:21:45;;;;;;;30.20;20.90;;;;;;;6.40;100.00;100176.05;106171;1259;101503;-79
2024/03/12 01:24:31;;;;;;;27.80;20.80;;;;;;;6.41;100.00;100175.40;105850;1262;100157;-78
2024/03/12 01:27:16;;;;;;;31.50;22.20;;;;;;;6.43;100.00;100176.66;105470;1261;98118;-77
2024/03/12 01:30:13;;;;;;;32.20;21.80;;;;;;;6.44;100.00;100173.42;105783;1259;97911;-80
2024/03/12 01:33:02;;;;;;;32.10;23.40;;;;;;;6.44;100.00;100174.36;105969;1263;97884;-80
2024/03/12 01:35:47;;;;;;;29.10;21.70;;;;;;;6.43;100.00;100177.15;106025;1260;101348;-80
2024/03/12 01:38:34;;;;;;;28.70;21.70;;;;;;;6.43;100.00;100178.79;106083;1264;99771;-80
2024/03/12 01:41:21;;;;;;;30.40;21.30;;;;;;;6.43;100.00;100174.81;106848;1259;99021;-79
2024/03/12 01:44:10;;;;;;;27.90;20.40;;;;;;;6.43;100.00;100174.63;105509;1262;98000;-78
2024/03/12 01:46:56;;;;;;;30.60;21.40;;;;;;;6.42;100.00;100172.34;105951;1259;97945;-78
2024/03/12 01:49:42;;;;;;;29.00;21.60;;;;;;;6.41;100.00;100177.75;106005;1259;101427;-79
2024/03/12 01:52:28;;;;;;;33.30;20.30;;;;;;;6.40;100.00;100174.70;105976;1259;187460;-79
2024/03/12 01:55:14;;;;;;;28.30;21.50;;;;;;;6.39;100.00;100172.41;106034;1264;99022;-78
2024/03/12 01:58:01;;;;;;;30.00;21.60;;;;;;;6.39;100.00;100173.14;106103;1260;97898;-79
2024/03/12 02:00:46;;;;;;;31.60;21.70;;;;;;;6.38;100.00;100170.26;106017;1264;98737;-78
2024/03/12 02:03:33;;;;;;;29.40;21.30;;;;;;;6.38;100.00;100170.98;106121;1259;102608;-79
2024/03/12 02:06:20;;;;;;;33.40;23.10;;;;;;;6.38;100.00;100171.85;106169;1264;100338;-79
2024/03/12 02:09:06;;;;;;;28.60;21.00;;;;;;;6.38;100.00;100173.48;105952;1259;98597;-79
2024/03/12 02:11:51;;;;;;;31.90;21.00;;;;;;;6.38;100.00;100172.41;105958;1264;97899;-78
2024/03/12 02:14:37;;;;;;;29.30;20.80;;;;;;;6.38;100.00;100169.89;105994;1259;98566;-79
2024/03/12 02:17:22;;;;;;;31.30;21.70;;;;;;;6.39;100.00;100169.85;106036;1259;102018;-79
2024/03/12 02:20:09;;;;;;;31.40;20.30;;;;;;;6.39;100.00;100167.65;105661;1264;100069;-77
2024/03/12 02:22:55;;;;;;;31.80;20.70;;;;;;;6.41;100.00;100164.65;105533;1264;99330;-79
2024/03/12 02:25:42;;;;;;;31.10;22.60;;;;;;;6.39;100.00;100166.05;105547;1264;98057;-79
2024/03/12 02:28:28;;;;;;;31.20;21.40;;;;;;;6.40;100.00;100162.10;105996;1260;97854;-80
2024/03/12 02:31:14;;;;;;;36.50;23.50;;;;;;;6.41;100.00;100161.99;105989;1264;101473;-79
2024/03/12 02:33:59;;;;;;;34.40;24.00;;;;;;;6.40;100.00;100159.97;105751;1264;99074;-79
2024/03/12 02:36:46;;;;;;;30.60;21.50;;;;;;;6.39;100.00;100157.74;105267;1259;97994;-77
2024/03/12 02:39:31;;;;;;;34.70;23.60;;;;;;;6.38;100.00;100159.81;105334;1262;97858;-78
2024/03/12 02:42:17;;;;;;;33.80;22.80;;;;;;;6.37;100.00;100159.35;105398;1263;97979;-78
2024/03/12 02:45:04;;;;;;;35.10;23.50;;;;;;;6.36;100.00;100158.26;105462;1259;101346;-78
2024/03/12 02:47:49;;;;;;;40.80;26.20;;;;;;;6.35;100.00;100156.22;105502;1264;99836;-79
2024/03/12 02:50:36;;;;;;;38.90;24.60;;;;;;;6.34;100.00;100155.48;105323;1264;98404;-77
2024/03/12 02:53:22;;;;;;;31.80;21.30;;;;;;;6.33;100.00;100153.63;105635;1264;98602;-78
2024/03/12 02:56:07;;;;;;;34.20;24.10;;;;;;;6.33;100.00;100154.16;105546;1259;98511;-77
2024/03/12 02:58:56;;;;;;;41.50;24.10;;;;;;;6.33;100.00;100152.77;105328;1260;102648;-77
2024/03/12 03:01:42;;;;;;;34.40;21.50;;;;;;;6.32;100.00;100150.84;105458;1260;99126;-77
2024/03/12 03:04:28;;;;;;;30.80;21.40;;;;;;;6.31;100.00;100153.07;105592;1260;97890;-77
2024/03/12 03:07:17;;;;;;;37.90;23.90;;;;;;;6.31;100.00;100151.71;105574;1259;97977;-78
2024/03/12 03:10:03;;;;;;;35.40;23.80;;;;;;;6.31;100.00;100150.82;105848;1259;99803;-78
2024/03/12 03:12:49;;;;;;;37.50;24.20;;;;;;;6.29;100.00;100147.50;105554;1263;101346;-78
2024/03/12 03:15:35;;;;;;;35.70;23.70;;;;;;;6.28;100.00;100149.79;105508;1264;99175;-78
2024/03/12 03:18:20;;;;;;;36.90;24.60;;;;;;;6.28;100.00;100145.52;105468;1259;97998;-78
2024/03/12 03:21:08;;;;;;;37.30;24.50;;;;;;;6.27;100.00;100145.24;105486;1264;97943;-78
2024/03/12 03:23:54;;;;;;;39.50;24.50;;;;;;;6.28;100.00;100146.44;105677;1262;98489;-77
2024/03/12 03:26:40;;;;;;;43.00;24.90;;;;;;;6.28;100.00;100148.20;105533;1259;102500;-79
2024/03/12 03:29:31;;;;;;;33.50;21.70;;;;;;;6.28;100.00;100144.43;105415;1259;100070;-77
2024/03/12 03:32:18;;;;;;;40.90;24.30;;;;;;;6.28;100.00;100146.21;105449;1260;100325;-79
2024/03/12 03:35:04;;;;;;;40.60;24.50;;;;;;;6.28;100.00;100147.61;105497;1263;98130;-77
2024/03/12 03:37:49;;;;;;;43.00;25.50;;;;;;;6.29;100.00;100147.33;105360;1264;98463;-79
2024/03/12 03:40:35;;;;;;;39.40;23.50;;;;;;;6.28;100.00;100144.41;105782;1264;102679;-78
2024/03/12 03:43:20;;;;;;;41.70;26.50;;;;;;;6.27;100.00;100142.60;105561;1264;99172;-79
2024/03/12 03:46:06;;;;;;;48.40;28.70;;;;;;;6.27;100.00;100146.17;105635;1265;97942;-77
2024/03/12 03:48:52;;;;;;;43.30;26.30;;;;;;;6.27;100.00;100145.84;105394;1260;98589;-77
2024/03/12 03:51:37;;;;;;;41.90;26.40;;;;;;;6.26;100.00;100145.05;105721;1259;97798;-79
2024/03/12 03:54:23;;;;;;;44.10;25.80;;;;;;;6.25;100.00;100141.59;105558;1259;102021;-77
2024/03/12 03:57:09;;;;;;;45.30;25.90;;;;;;;6.24;100.00;100142.40;105422;1259;99200;-78
2024/03/12 03:59:56;;;;;;;45.80;25.90;;;;;;;6.24;100.00;100137.36;105603;1260;97759;-79
2024/03/12 04:02:44;;;;;;;42.70;26.10;;;;;;;6.26;100.00;100138.98;106020;1260;98729;-79
2024/03/12 04:05:32;;;;;;;50.00;27.10;;;;;;;6.27;100.00;100141.55;106131;1263;97900;-80
2024/03/12 04:08:18;;;;;;;49.50;28.70;;;;;;;6.26;100.00;100142.17;106072;1263;102541;-78
2024/03/12 04:11:04;;;;;;;56.40;29.20;;;;;;;6.26;100.00;100142.05;106067;1259;100319;-79
2024/03/12 04:13:54;;;;;;;45.80;28.20;;;;;;;6.27;100.00;100140.98;105908;1262;97977;-76
2024/03/12 04:16:40;;;;;;;49.10;29.50;;;;;;;6.29;100.00;100138.89;105424;1263;99495;-78
2024/03/12 04:19:29;;;;;;;49.40;29.20;;;;;;;6.29;100.00;100138.89;105610;1261;98550;-77
2024/03/12 04:22:19;;;;;;;51.50;27.60;;;;;;;6.28;100.00;100144.30;106015;1260;102151;-79
2024/03/12 04:25:07;;;;;;;50.20;27.20;;;;;;;6.28;100.00;100143.05;106103;1260;100418;-80
2024/03/12 04:27:53;;;;;;;50.00;28.90;;;;;;;6.28;100.00;100144.60;106055;1259;98960;-78
2024/03/12 04:30:39;;;;;;;50.90;29.90;;;;;;;6.28;100.00;100144.98;106017;1263;97953;-78
2024/03/12 04:33:24;;;;;;;58.20;34.20;;;;;;;6.30;100.00;100139.65;105614;1265;98007;-78
2024/03/12 04:36:13;;;;;;;61.90;35.00;;;;;;;6.31;100.00;100144.10;105741;1259;101539;-78
2024/03/12 04:38:59;;;;;;;63.20;34.00;;;;;;;6.32;100.00;100144.04;105642;1262;100784;-79
2024/03/12 04:41:44;;;;;;;53.60;30.60;;;;;;;6.32;100.00;100149.20;105554;1260;98517;-77
2024/03/12 04:44:31;;;;;;;57.30;30.50;;;;;;;6.31;100.00;100150.52;105156;1265;97931;-77
2024/03/12 04:47:17;;;;;;;55.30;30.10;;;;;;;6.29;100.00;100151.02;105428;1261;98597;-79
2024/03/12 04:50:03;;;;;;;52.20;29.60;;;;;;;6.29;100.00;100150.44;105461;1261;102000;-78
2024/03/12 04:52:52;;;;;;;54.00;29.00;;;;;;;6.28;100.00;100148.83;105482;1265;99154;-79
2024/03/12 04:55:39;;;;;;;58.10;30.80;;;;;;;6.29;100.00;100152.45;105435;1260;98666;-77
2024/03/12 04:58:24;;;;;;;49.40;28.40;;;;;;;6.29;100.00;100153.84;105459;1264;97997;-77
2024/03/12 05:01:10;;;;;;;53.50;30.00;;;;;;;6.29;100.00;100156.05;105403;1259;98399;-77
2024/03/12 05:03:55;;;;;;;58.20;31.80;;;;;;;6.29;100.00;100158.95;105560;1260;103038;-77
2024/03/12 05:06:41;;;;;;;49.40;31.00;;;;;;;6.29;100.00;100157.71;105143;1261;99406;-76
2024/03/12 05:09:28;;;;;;;53.00;30.00;;;;;;;6.27;100.00;100157.87;105444;1260;99063;-78
2024/03/12 05:12:14;;;;;;;52.20;28.70;;;;;;;6.29;100.00;100161.68;105514;1260;97340;-77
2024/03/12 05:14:59;;;;;;;54.30;28.70;;;;;;;6.30;100.00;100162.52;105436;1264;99659;-77
2024/03/12 05:17:48;;;;;;;54.90;30.00;;;;;;;6.29;100.00;100166.36;105585;1259;101427;-77
2024/03/12 05:20:36;;;;;;;60.70;31.40;;;;;;;6.29;100.00;100164.55;105752;1259;99981;-77
2024/03/12 05:23:23;;;;;;;60.30;33.20;;;;;;;6.29;100.00;100166.72;106897;1259;97715;-79
2024/03/12 05:26:09;;;;;;;60.00;33.50;;;;;;;6.28;100.00;100166.38;105429;1259;97970;-78
2024/03/12 05:28:58;;;;;;;57.20;31.50;;;;;;;6.30;100.00;100165.31;105456;1265;97785;-78
2024/03/12 05:31:43;;;;;;;56.30;29.60;;;;;;;6.31;100.00;100168.77;105396;1259;102673;-78
2024/03/12 05:34:37;;;;;;;56.40;30.40;;;;;;;6.31;100.00;100171.08;105537;1263;101196;-80
2024/03/12 05:37:29;;;;;;;58.40;31.00;;;;;;;6.31;100.00;100174.09;105394;1266;99243;-76
2024/03/12 05:40:21;;;;;;;68.20;36.60;;;;;;;6.31;100.00;100170.34;105764;1259;98069;-79
2024/03/12 05:49:16;;;;;;;62.10;32.60;;;;;;;6.33;100.00;100179.77;105577;1259;99082;-79
2024/03/12 05:52:02;;;;;;;66.80;42.60;;;;;;;6.34;100.00;100183.77;105796;1265;98386;-79
2024/03/12 05:54:48;;;;;;;70.80;40.40;;;;;;;6.37;100.00;100188.64;105719;1264;98386;-80
2024/03/12 05:57:33;;;;;;;62.90;35.90;;;;;;;6.39;100.00;100188.23;105900;1264;99055;-78
2024/03/12 06:00:19;;;;;;;60.40;31.10;;;;;;;6.40;100.00;100184.37;105640;1259;101337;-80
2024/03/12 06:03:06;;;;;;;60.30;33.10;;;;;;;6.41;100.00;100185.93;105579;1259;100413;-79
2024/03/12 06:05:52;;;;;;;84.30;41.10;;;;;;;6.40;100.00;100181.52;105630;1275;99265;-78
2024/03/12 06:08:38;;;;;;;99.10;49.10;;;;;;;6.41;100.00;100182.14;105515;1264;98070;-78
2024/03/12 06:11:23;;;;;;;131.60;69.90;;;;;;;6.42;100.00;100182.73;105623;1260;97893;-78
2024/03/12 06:14:09;;;;;;;136.70;67.00;;;;;;;6.43;100.00;100184.90;105519;1264;102153;-77
2024/03/12 06:16:54;;;;;;;106.50;53.30;;;;;;;6.44;100.00;100185.69;105456;1265;100110;-78
2024/03/12 06:19:40;;;;;;;93.10;49.10;;;;;;;6.44;100.00;100186.95;105402;1259;99069;-76
2024/03/12 06:22:26;;;;;;;108.50;51.00;;;;;;;6.43;100.00;100186.92;105691;1265;98049;-79
2024/03/12 06:25:12;;;;;;;88.10;45.20;;;;;;;6.43;100.00;100191.98;105451;1265;97880;-77
2024/03/12 06:28:05;;;;;;;129.50;65.20;;;;;;;6.45;100.00;100195.54;105541;1265;101420;-79
2024/03/12 06:30:51;;;;;;;97.20;47.60;;;;;;;6.46;100.00;100197.77;106076;1265;100656;-80
2024/03/12 06:33:39;;;;;;;156.90;74.40;;;;;;;6.45;100.00;100201.26;105391;1265;99093;-79
2024/03/12 06:36:24;;;;;;;93.70;50.20;;;;;;;6.45;100.00;100201.98;105469;1264;97871;-78
2024/03/12 06:39:13;;;;;;;73.60;39.50;;;;;;;6.45;100.00;100205.79;105409;1260;100921;-78
2024/03/12 06:42:07;;;;;;;85.50;46.40;;;;;;;6.46;100.00;100208.73;105388;1261;101491;-78
2024/03/12 06:44:52;;;;;;;86.20;47.40;;;;;;;6.47;100.00;100211.30;105487;1260;100394;-78
2024/03/12 06:47:40;;;;;;;64.90;34.80;;;;;;;6.47;100.00;100209.31;105346;1259;99062;-77
2024/03/12 06:50:26;;;;;;;62.70;34.20;;;;;;;6.49;100.00;100211.27;105499;1259;98525;-78
2024/03/12 06:53:14;;;;;;;72.60;38.80;;;;;;;6.49;100.00;100210.83;105497;1265;97881;-77
2024/03/12 06:56:01;;;;;;;80.10;43.40;;;;;;;6.51;100.00;100211.02;105481;1260;101410;-77
2024/03/12 06:58:46;;;;;;;71.70;36.60;;;;;;;6.53;100.00;100212.41;107818;1260;99083;-78
2024/03/12 07:01:31;;;;;;;69.90;38.10;;;;;;;6.54;100.00;100212.23;105452;1265;97951;-79
2024/03/12 07:04:17;;;;;;;67.70;35.20;;;;;;;6.55;100.00;100216.73;105538;1264;97885;-78
2024/03/12 07:07:06;;;;;;;76.50;38.80;;;;;;;6.56;100.00;100218.02;105584;1259;98518;-78
2024/03/12 07:09:51;;;;;;;81.00;38.40;;;;;;;6.58;100.00;100219.92;105583;1267;101363;-79
2024/03/12 07:12:37;;;;;;;69.90;35.80;;;;;;;6.60;100.00;100224.38;105647;1262;99170;-78
2024/03/12 07:15:24;;;;;;;80.20;41.50;;;;;;;6.61;100.00;100224.20;106460;1259;98619;-78
2024/03/12 07:18:11;;;;;;;88.70;47.80;;;;;;;6.61;100.00;100221.37;105800;1261;97996;-78
2024/03/12 07:20:57;;;;;;;72.40;36.30;;;;;;;6.62;100.00;100225.20;105802;1259;98521;-79
2024/03/12 07:23:42;;;;;;;89.90;45.10;;;;;;;6.62;100.00;100221.77;106185;1260;102095;-77
2024/03/12 07:26:28;;;;;;;71.10;39.40;;;;;;;6.62;100.00;100218.04;105258;1265;100799;-76
2024/03/12 07:29:14;;;;;;;69.10;37.40;;;;;;;6.63;100.00;100216.17;105253;1265;97981;-84
2024/03/12 07:32:03;;;;;;;78.20;40.10;;;;;;;6.65;100.00;100214.23;106145;1262;97875;-86
2024/03/12 07:34:49;;;;;;;87.20;46.70;;;;;;;6.66;100.00;100215.94;105928;1262;98005;-78
2024/03/12 07:37:39;;;;;;;72.10;38.00;;;;;;;6.67;100.00;100221.13;105257;1260;102738;-76
2024/03/12 07:40:25;;;;;;;71.60;34.40;;;;;;;6.69;100.00;100225.67;105135;1265;99084;-74
2024/03/12 07:43:11;;;;;;;78.00;37.30;;;;;;;6.70;100.00;100223.91;105158;1260;99350;-76
2024/03/12 07:45:57;;;;;;;70.60;37.20;;;;;;;6.71;100.00;100226.80;105295;1265;99118;-76
2024/03/12 07:48:42;;;;;;;74.60;38.90;;;;;;;6.71;100.00;100225.95;105354;1264;98430;-75
2024/03/12 07:51:29;;;;;;;77.00;41.70;;;;;;;6.73;100.00;100224.70;105516;1264;101339;-76
2024/03/12 07:54:15;;;;;;;68.30;34.70;;;;;;;6.74;100.00;100224.89;108087;1261;99790;-77
2024/03/12 07:57:01;;;;;;;129.80;55.60;;;;;;;6.76;100.00;100227.48;108063;1260;99061;-77
2024/03/12 07:59:46;;;;;;;90.40;44.40;;;;;;;6.78;100.00;100228.73;105370;1265;98061;-76
2024/03/12 08:02:32;;;;;;;73.30;36.20;;;;;;;6.78;100.00;100227.58;105193;1261;97962;-76
2024/03/12 08:05:18;;;;;;;103.70;50.70;;;;;;;6.80;100.00;100225.94;105222;1261;102442;-77
2024/03/12 08:08:06;;;;;;;92.50;46.80;;;;;;;6.82;100.00;100227.20;105110;1265;99210;-75
2024/03/12 08:10:52;;;;;;;96.00;49.80;;;;;;;6.83;100.00;100229.05;105415;1265;97980;-76
2024/03/12 08:13:37;;;;;;;87.10;43.90;;;;;;;6.83;100.00;100232.05;105122;1263;98724;-75
2024/03/12 08:16:23;;;;;;;78.60;42.60;;;;;;;6.84;100.00;100235.47;105205;1265;97978;-75
2024/03/12 08:19:11;;;;;;;99.00;53.90;;;;;;;6.85;100.00;100235.31;105042;1264;101468;-76
2024/03/12 08:21:56;;;;;;;82.50;40.80;;;;;;;6.86;100.00;100235.73;105082;1263;101207;-76
2024/03/12 08:24:43;;;;;;;70.70;36.60;;;;;;;6.88;100.00;100234.54;105133;1264;98507;-75
2024/03/12 08:27:29;;;;;;;70.80;36.60;;;;;;;6.88;100.00;100237.09;105133;1265;97958;-76
2024/03/12 08:30:15;;;;;;;90.70;48.30;;;;;;;6.89;100.00;100234.69;105260;1265;98405;-74
2024/03/12 08:33:00;;;;;;;90.20;48.00;;;;;;;6.91;100.00;100237.64;105080;1265;103073;-75
2024/03/12 08:35:46;;;;;;;76.00;40.30;;;;;;;6.92;100.00;100238.24;105119;1260;99830;-76
2024/03/12 08:38:31;;;;;;;67.00;33.50;;;;;;;6.93;100.00;100238.38;105052;1265;98314;-77
2024/03/12 08:41:17;;;;;;;71.00;35.10;;;;;;;6.94;100.00;100242.98;105258;1259;98075;-77
2024/03/12 08:44:03;;;;;;;69.20;34.60;;;;;;;6.96;100.00;100241.36;105110;1265;98418;-76
2024/03/12 08:46:49;;;;;;;80.00;41.10;;;;;;;6.97;100.00;100242.15;105103;1265;101403;-75
2024/03/12 08:49:35;;;;;;;76.00;39.40;;;;;;;6.99;100.00;100242.48;104890;1265;100325;-76
2024/03/12 08:52:22;;;;;;;76.30;36.80;;;;;;;6.99;100.00;100243.45;105092;1264;98561;-75
2024/03/12 08:55:07;;;;;;;73.70;38.80;;;;;;;7.01;100.00;100244.56;105033;1264;97989;-77
2024/03/12 08:57:52;;;;;;;64.90;33.50;;;;;;;7.02;100.00;100245.52;105153;1265;98505;-75
2024/03/12 09:00:41;;;;;;;71.20;36.30;;;;;;;7.01;100.00;100246.84;105232;1273;101387;-76
2024/03/12 09:03:26;;;;;;;66.30;35.40;;;;;;;7.02;100.00;100247.10;105125;1273;99814;-76
2024/03/12 09:06:12;;;;;;;69.90;34.70;;;;;;;7.03;100.00;100247.28;105103;1266;99114;-76
2024/03/12 09:08:57;;;;;;;63.40;32.50;;;;;;;7.05;100.00;100244.68;105133;1264;98587;-76
2024/03/12 09:11:43;;;;;;;64.40;30.80;;;;;;;7.07;100.00;100246.95;105179;1261;98849;-76
2024/03/12 09:14:30;;;;;;;62.70;32.40;;;;;;;7.10;100.00;100247.63;105261;1264;101353;-77
2024/03/12 09:17:15;;;;;;;65.90;33.40;;;;;;;7.12;100.00;100246.98;105091;1265;99560;-75
2024/03/12 09:20:05;;;;;;;63.50;29.50;;;;;;;7.14;100.00;100250.17;105013;1265;99019;-76
2024/03/12 09:22:50;;;;;;;73.40;34.30;;;;;;;7.15;100.00;100247.21;105349;1265;97964;-76
2024/03/12 09:25:36;;;;;;;59.80;29.50;;;;;;;7.17;100.00;100248.03;105113;1264;98492;-76
2024/03/12 09:28:21;;;;;;;61.20;30.20;;;;;;;7.20;100.00;100248.58;105115;1265;102127;-76
2024/03/12 09:31:08;;;;;;;67.40;31.40;;;;;;;7.24;100.00;100255.45;105271;1265;99059;-76
2024/03/12 09:33:55;;;;;;;62.60;33.00;;;;;;;7.26;100.00;100255.48;105054;1265;99250;-76
2024/03/12 09:36:40;;;;;;;64.60;32.80;;;;;;;7.29;100.00;100255.52;105059;1261;97891;-77
2024/03/12 09:39:26;;;;;;;67.60;33.00;;;;;;;7.32;100.00;100256.64;105084;1260;99599;-77
2024/03/12 09:42:17;;;;;;;72.40;33.70;;;;;;;7.34;100.00;100256.57;105149;1265;101367;-77
2024/03/12 09:45:02;;;;;;;62.40;34.00;;;;;;;7.34;100.00;100257.34;105241;1266;99090;-76
2024/03/12 09:47:48;;;;;;;62.80;32.80;;;;;;;7.34;100.00;100263.13;105041;1265;97894;-76
2024/03/12 09:50:35;;;;;;;65.70;34.20;;;;;;;7.35;100.00;100264.09;105235;1264;98115;-86
2024/03/12 09:53:23;;;;;;;58.30;31.10;;;;;;;7.34;100.00;100268.48;106198;1262;98946;-84
2024/03/12 09:56:10;;;;;;;61.20;35.00;;;;;;;7.33;100.00;100271.84;106174;1265;101362;-80
2024/03/12 09:58:57;;;;;;;57.10;30.60;;;;;;;7.33;100.00;100272.30;105937;1259;99158;-85
2024/03/12 10:01:44;;;;;;;67.50;35.00;;;;;;;7.36;100.00;100271.91;106056;1265;97928;-85
2024/03/12 10:04:29;;;;;;;62.50;32.40;;;;;;;7.39;100.00;100271.74;105915;1265;97947;-84
2024/03/12 10:07:16;;;;;;;79.00;36.60;;;;;;;7.41;100.00;100273.48;105909;1266;98530;-83
2024/03/12 10:10:07;;;;;;;64.80;34.60;;;;;;;7.42;100.00;100276.83;105906;1262;101515;-85
2024/03/12 10:12:52;;;;;;;70.30;37.10;;;;;;;7.42;100.00;100270.19;106062;1261;100437;-83
2024/03/12 10:15:58;;;;;;;89.00;47.80;;;;;;;7.44;100.00;100269.98;106022;1266;97759;-76
2024/03/12 10:18:46;;;;;;;63.70;33.30;;;;;;;7.47;100.00;100270.70;105963;1265;97971;-88
2024/03/12 10:21:33;;;;;;;62.50;32.80;;;;;;;7.49;100.00;100270.30;106182;1261;97863;-81
2024/03/12 10:24:21;;;;;;;62.40;32.80;;;;;;;7.51;100.00;100270.41;106209;1260;101925;-83
2024/03/12 10:27:07;;;;;;;58.90;32.20;;;;;;;7.52;100.00;100271.36;106395;1265;101636;-85
2024/03/12 10:29:54;;;;;;;54.30;29.20;;;;;;;7.54;100.00;100268.15;106827;1265;98912;-86
2024/03/12 10:32:39;;;;;;;60.50;29.10;;;;;;;7.55;100.00;100272.28;106206;1262;96369;-87
2024/03/12 10:35:25;;;;;;;54.90;27.80;;;;;;;7.55;100.00;100270.22;105783;1260;98527;-81
2024/03/12 10:38:26;;;;;;;56.00;28.50;;;;;;;7.57;100.00;100271.97;106015;1260;101498;-79
2024/03/12 10:41:17;;;;;;;58.10;30.70;;;;;;;7.60;100.00;100273.46;106263;1261;100687;-80
2024/03/12 10:44:13;;;;;;;64.10;34.60;;;;;;;7.62;100.00;100273.54;106310;1261;98491;-79
2024/03/12 10:47:00;;;;;;;63.20;30.20;;;;;;;7.64;100.00;100272.80;105997;1266;97964;-86
2024/03/12 10:49:48;;;;;;;55.20;27.00;;;;;;;7.65;100.00;100270.02;105780;1273;98519;-83
2024/03/12 10:52:34;;;;;;;52.60;25.40;;;;;;;7.67;100.00;100269.45;106382;1261;101389;-88
2024/03/12 10:55:24;;;;;;;53.50;26.50;;;;;;;7.66;100.00;100268.83;105998;1266;100950;-77
2024/03/12 10:58:14;;;;;;;50.10;24.60;;;;;;;7.66;100.00;100267.02;105413;1267;99095;-81
2024/03/12 11:01:01;;;;;;;44.30;24.40;;;;;;;7.68;100.00;100268.30;105932;1261;97793;-82
2024/03/12 11:03:56;;;;;;;46.20;25.50;;;;;;;7.69;100.00;100262.59;106301;1268;97975;-84
2024/03/12 11:06:42;;;;;;;45.70;26.00;;;;;;;7.70;100.00;100265.62;106302;1268;102265;-78
2024/03/12 11:09:29;;;;;;;49.70;25.50;;;;;;;7.69;100.00;100260.98;105981;1264;99087;-80
2024/03/12 11:12:15;;;;;;;54.40;26.60;;;;;;;7.70;100.00;100262.53;106683;1260;97797;-78
2024/03/12 11:15:01;;;;;;;48.10;25.40;;;;;;;7.71;100.00;100265.34;106113;1261;97900;-83
2024/03/12 11:17:48;;;;;;;50.70;26.30;;;;;;;7.73;100.00;100262.28;106603;1261;98563;-77
2024/03/12 11:20:39;;;;;;;50.60;27.30;;;;;;;7.76;100.00;100259.52;106105;1264;103802;-81
2024/03/12 11:23:28;;;;;;;55.20;27.70;;;;;;;7.78;100.00;100256.71;105905;1261;99328;-85
2024/03/12 11:26:15;;;;;;;47.50;25.20;;;;;;;7.81;100.00;100259.39;105853;1261;99007;-84
2024/03/12 11:29:01;;;;;;;48.50;24.50;;;;;;;7.84;100.00;100260.34;105937;1267;97970;-83
2024/03/12 11:31:46;;;;;;;52.80;26.80;;;;;;;7.85;100.00;100260.02;106082;1267;98480;-85
2024/03/12 11:34:35;;;;;;;53.10;27.20;;;;;;;7.87;100.00;100258.91;105530;1261;101421;-87
2024/03/12 11:37:23;;;;;;;40.00;24.20;;;;;;;7.87;100.00;100259.29;106508;1262;100378;-88
2024/03/12 11:40:30;;;;;;;42.50;23.00;;;;;;;7.85;100.00;100258.87;105958;1266;99024;-85
2024/03/12 11:43:41;;;;;;;42.90;24.50;;;;;;;7.83;100.00;100262.08;106055;1261;98021;-82
2024/03/12 11:46:42;;;;;;;41.10;23.50;;;;;;;7.84;100.00;100260.66;105299;1264;98793;-77
2024/03/12 11:49:33;;;;;;;;;;;;;;;7.85;100.00;100258.23;105252;1265;101459;-76
2024/03/12 11:52:22;;;;;;;43.80;23.90;;;;;;;7.85;100.00;100259.69;105908;1260;99262;-78
2024/03/12 11:55:09;;;;;;;48.30;23.40;;;;;;;7.84;100.00;100258.98;105783;1266;98261;-78
2024/03/12 11:57:54;;;;;;;43.30;24.60;;;;;;;7.84;100.00;100258.41;105648;1264;99095;-76
2024/03/12 12:00:40;;;;;;;51.10;25.60;;;;;;;7.87;100.00;100258.81;105282;1264;98063;-77
2024/03/12 12:03:26;;;;;;;44.70;23.60;;;;;;;7.88;100.00;100255.95;105210;1276;102976;-77
2024/03/12 12:06:11;;;;;;;44.80;24.30;;;;;;;7.88;100.00;100258.98;105249;1264;99097;-77
2024/03/12 12:09:10;;;;;;;43.50;24.30;;;;;;;7.90;100.00;100257.52;105145;1267;98002;-77
2024/03/12 12:11:56;;;;;;;45.50;23.50;;;;;;;7.93;100.00;100258.45;105035;1264;98030;-77
2024/03/12 12:14:43;;;;;;;52.90;31.60;;;;;;;7.95;100.00;100258.69;105176;1273;99145;-77
2024/03/12 12:17:31;;;;;;;41.10;24.60;;;;;;;7.97;100.00;100260.58;105841;1261;101780;-78
2024/03/12 12:20:21;;;;;;;53.50;27.90;;;;;;;7.98;100.00;100256.80;105716;1264;99128;-78
2024/03/12 12:23:07;;;;;;;44.00;23.60;;;;;;;7.99;100.00;100257.00;105397;1267;99190;-88
2024/03/12 12:25:56;;;;;;;52.90;30.00;;;;;;;8.02;100.00;100257.70;106090;1260;98049;-84
2024/03/12 12:28:41;;;;;;;46.30;25.10;;;;;;;8.06;100.00;100259.00;105539;1265;98572;-81
2024/03/12 12:31:29;;;;;;;47.00;24.70;;;;;;;8.07;100.00;100255.79;106268;1260;101445;-86
2024/03/12 12:34:15;;;;;;;46.90;25.80;;;;;;;8.05;100.00;100250.23;105504;1264;99472;-86